Time;durP1;ratioP1;P1;durP2;ratioP2;P2;SDS_P1;SDS_P2;PMS_P1;PMS_P2;Temp;Humidity;BMP_temperature;BMP_pressure;BME280_temperature;BME280_humidity;BME280_pressure;Samples;Min_cycle;Max_cycle;Signal;HPM_P1;HPM_P2
2023/12/19 00:02:00;;;;;;;43.55;26.58;;;;;;;0.84;100.00;101123.50;4986643;28;20529;-76
2023/12/19 00:04:25;;;;;;;43.88;26.98;;;;;;;0.73;100.00;101116.03;4985708;28;20062;-77
2023/12/19 00:06:51;;;;;;;38.97;26.80;;;;;;;0.77;100.00;101122.81;4984527;28;20061;-77
2023/12/19 00:09:16;;;;;;;39.13;26.67;;;;;;;0.78;100.00;101123.69;4984514;28;20030;-76
2023/12/19 00:11:41;;;;;;;43.45;26.10;;;;;;;0.81;100.00;101114.06;4985161;28;20046;-77
2023/12/19 00:14:07;;;;;;;46.63;27.27;;;;;;;0.80;100.00;101103.72;4985595;28;20030;-77
2023/12/19 00:16:33;;;;;;;40.10;26.77;;;;;;;0.64;100.00;101103.31;4985897;28;20038;-75
2023/12/19 00:18:59;;;;;;;43.97;27.65;;;;;;;0.56;100.00;101107.00;4985870;28;20096;-76
2023/12/19 00:21:24;;;;;;;41.20;26.48;;;;;;;0.61;100.00;101100.78;4983946;28;20118;-76
2023/12/19 00:23:49;;;;;;;44.05;27.88;;;;;;;0.59;100.00;101104.31;4987172;28;20043;-77
2023/12/19 00:26:15;;;;;;;48.60;28.23;;;;;;;0.47;100.00;101092.53;4984381;28;20066;-77
2023/12/19 00:28:41;;;;;;;47.88;28.80;;;;;;;0.41;100.00;101085.72;4986160;28;20133;-77
2023/12/19 00:31:07;;;;;;;46.30;28.52;;;;;;;0.55;100.00;101085.34;4984619;28;20380;-77
2023/12/19 00:33:33;;;;;;;41.67;26.95;;;;;;;0.60;100.00;101087.81;4985999;28;20050;-76
2023/12/19 00:35:58;;;;;;;42.05;27.80;;;;;;;0.61;100.00;101079.13;4986836;28;20061;-77
2023/12/19 00:38:24;;;;;;;43.00;27.58;;;;;;;0.65;100.00;101075.56;4987884;28;20734;-77
2023/12/19 00:40:49;;;;;;;38.03;27.05;;;;;;;0.66;100.00;101070.31;4983400;28;20425;-77
2023/12/19 00:43:14;;;;;;;46.55;29.15;;;;;;;0.70;100.00;101078.91;4986784;28;20431;-76
2023/12/19 00:45:40;;;;;;;47.90;28.77;;;;;;;0.72;100.00;101082.28;4984191;28;20416;-76
2023/12/19 00:48:06;;;;;;;44.38;28.13;;;;;;;0.66;100.00;101077.25;4982411;28;20038;-78
2023/12/19 00:50:31;;;;;;;45.20;29.73;;;;;;;0.58;100.00;101068.84;4986056;28;20368;-77
2023/12/19 00:52:56;;;;;;;47.90;28.80;;;;;;;0.57;100.00;101072.34;4985231;28;20039;-78
2023/12/19 00:55:22;;;;;;;46.90;29.80;;;;;;;0.53;100.00;101062.94;4986742;28;20058;-77
2023/12/19 00:57:48;;;;;;;46.60;28.70;;;;;;;0.57;100.00;101059.34;4983716;28;20453;-76
2023/12/19 01:00:14;;;;;;;43.65;28.75;;;;;;;0.62;100.00;101065.25;4984444;28;20113;-76
2023/12/19 01:02:39;;;;;;;42.55;28.08;;;;;;;0.62;100.00;101055.72;4985887;28;20052;-75
2023/12/19 01:05:05;;;;;;;46.85;28.20;;;;;;;0.64;100.00;101053.94;4985671;28;20077;-77
2023/12/19 01:07:30;;;;;;;45.60;28.13;;;;;;;0.65;100.00;101050.41;4985756;28;20506;-78
2023/12/19 01:09:56;;;;;;;44.95;28.10;;;;;;;0.65;100.00;101049.59;4990779;28;20469;-76
2023/12/19 01:12:21;;;;;;;47.50;28.45;;;;;;;0.65;100.00;101047.00;4989508;28;20085;-77
2023/12/19 01:14:49;;;;;;;45.22;27.75;;;;;;;0.66;100.00;101056.47;4990689;28;20050;-76
2023/12/19 01:17:14;;;;;;;47.95;28.02;;;;;;;0.64;100.00;101053.09;4999257;28;20022;-77
2023/12/19 01:19:40;;;;;;;42.42;27.60;;;;;;;0.66;100.00;101048.69;5006879;28;20058;-77
2023/12/19 01:22:06;;;;;;;40.65;28.55;;;;;;;0.66;100.00;101041.75;5013004;28;20173;-77
2023/12/19 01:24:31;;;;;;;45.15;27.92;;;;;;;0.66;100.00;101052.13;5012448;28;20042;-77
2023/12/19 01:26:56;;;;;;;43.63;28.25;;;;;;;0.67;100.00;101047.78;5007208;28;20015;-78
2023/12/19 01:29:25;;;;;;;40.75;26.98;;;;;;;0.69;100.00;101046.00;5040222;28;20073;-76
2023/12/19 01:31:51;;;;;;;40.42;27.20;;;;;;;0.70;100.00;101050.31;5010349;28;20038;-76
2023/12/19 01:34:16;;;;;;;42.55;27.33;;;;;;;0.69;100.00;101043.41;5012470;28;20038;-77
2023/12/19 01:36:42;;;;;;;41.42;26.98;;;;;;;0.69;100.00;101053.81;4993909;28;20101;-77
2023/12/19 01:39:08;;;;;;;41.50;26.17;;;;;;;0.66;100.00;101052.13;4992963;28;20070;-76
2023/12/19 01:41:34;;;;;;;39.45;27.13;;;;;;;0.59;100.00;101049.78;4984894;28;20109;-77
2023/12/19 01:44:00;;;;;;;37.50;26.13;;;;;;;0.56;100.00;101045.50;4987366;28;20475;-75
2023/12/19 01:46:26;;;;;;;39.63;26.15;;;;;;;0.59;100.00;101044.56;4984965;28;20039;-77
2023/12/19 01:48:51;;;;;;;37.05;24.92;;;;;;;0.44;100.00;101053.63;4987934;28;20030;-77
2023/12/19 01:51:18;;;;;;;39.33;26.05;;;;;;;0.36;100.00;101051.25;4985036;28;20041;-76
2023/12/19 01:53:47;;;;;;;37.47;25.50;;;;;;;0.16;100.00;101048.34;4986873;28;20027;-77
2023/12/19 01:56:15;;;;;;;42.45;26.20;;;;;;;0.00;100.00;101054.84;4988520;28;20072;-77
2023/12/19 01:58:41;;;;;;;35.15;23.98;;;;;;;-0.06;100.00;101055.00;4986093;28;20130;-77
2023/12/19 02:01:07;;;;;;;38.15;25.33;;;;;;;0.02;100.00;101047.00;4986763;28;20096;-77
2023/12/19 02:03:33;;;;;;;37.25;25.98;;;;;;;0.14;100.00;101057.06;4987998;28;20136;-77
2023/12/19 02:06:00;;;;;;;40.75;25.17;;;;;;;0.10;100.00;101053.72;4987756;28;20041;-77
2023/12/19 02:08:27;;;;;;;37.63;26.05;;;;;;;0.15;100.00;101048.38;4987176;28;20030;-78
2023/12/19 02:10:53;;;;;;;40.42;25.65;;;;;;;-0.07;100.00;101048.97;4969797;28;20506;-76
2023/12/19 02:13:19;;;;;;;41.00;26.17;;;;;;;0.07;100.00;101051.19;4986474;28;20046;-77
2023/12/19 02:15:45;;;;;;;39.55;26.27;;;;;;;0.16;100.00;101045.75;4986578;28;20038;-76
2023/12/19 02:18:18;;;;;;;43.83;26.90;;;;;;;-0.03;100.00;101039.34;4988204;28;20082;-76
2023/12/19 02:20:44;;;;;;;44.17;27.40;;;;;;;0.03;100.00;101038.31;4985141;28;20030;-75
2023/12/19 02:23:11;;;;;;;40.53;27.15;;;;;;;0.10;100.00;101035.53;4989641;28;20096;-76
2023/12/19 02:25:37;;;;;;;40.28;25.55;;;;;;;0.12;100.00;101041.53;5018768;28;20064;-76
2023/12/19 02:28:03;;;;;;;40.30;25.80;;;;;;;0.18;100.00;101033.56;4988425;28;20471;-76
2023/12/19 02:30:28;;;;;;;42.92;28.02;;;;;;;0.20;100.00;101034.38;4987072;28;20403;-77
2023/12/19 02:32:54;;;;;;;43.53;28.42;;;;;;;0.08;100.00;101042.50;4986220;28;20042;-77
2023/12/19 02:35:20;;;;;;;48.58;28.08;;;;;;;0.08;100.00;101031.25;4989083;28;20045;-76
2023/12/19 02:37:45;;;;;;;42.38;27.88;;;;;;;0.18;100.00;101033.56;4988547;28;20061;-76
2023/12/19 02:40:12;;;;;;;54.63;31.95;;;;;;;0.27;100.00;101028.13;5019481;28;20461;-77
2023/12/19 02:42:42;;;;;;;95.88;44.60;;;;;;;0.31;100.00;101024.56;4982608;28;20081;-78
2023/12/19 02:45:09;;;;;;;69.80;36.43;;;;;;;0.09;100.00;101026.03;4989044;28;20133;-76
2023/12/19 02:47:34;;;;;;;51.67;32.42;;;;;;;0.13;100.00;101019.88;4985821;28;20059;-77
2023/12/19 02:50:00;;;;;;;44.28;30.40;;;;;;;-0.06;100.00;101013.50;4989063;28;20089;-77
2023/12/19 02:52:26;;;;;;;47.30;29.88;;;;;;;-0.06;100.00;101013.50;4985217;28;20049;-77
2023/12/19 02:54:51;;;;;;;44.55;29.67;;;;;;;0.00;100.00;101013.34;4988936;28;20041;-78
2023/12/19 02:57:16;;;;;;;39.42;29.10;;;;;;;0.08;100.00;101000.97;4985995;28;20046;-76
2023/12/19 02:59:42;;;;;;;51.88;30.00;;;;;;;0.10;100.00;101004.38;4988929;28;20035;-77
2023/12/19 03:02:07;;;;;;;44.42;29.25;;;;;;;0.09;100.00;101002.69;4986885;28;20046;-77
2023/12/19 03:04:33;;;;;;;47.85;29.25;;;;;;;0.09;100.00;100996.63;4987392;28;20046;-77
2023/12/19 03:06:58;;;;;;;42.03;28.80;;;;;;;0.10;100.00;100991.41;4985097;28;20115;-77
2023/12/19 03:09:24;;;;;;;42.28;29.30;;;;;;;0.12;100.00;100992.22;4988568;28;20114;-77
2023/12/19 03:12:10;;;;;;;43.80;28.05;;;;;;;-0.01;100.00;100985.66;4985371;28;20037;-76
2023/12/19 03:14:36;;;;;;;40.90;27.52;;;;;;;0.08;100.00;100982.81;4986451;28;20153;-77
2023/12/19 03:17:03;;;;;;;45.90;28.80;;;;;;;0.02;100.00;100982.97;4969242;28;20475;-78
2023/12/19 03:19:29;;;;;;;39.75;27.27;;;;;;;-0.22;100.00;100975.84;4988927;28;20034;-77
2023/12/19 03:21:55;;;;;;;43.92;28.50;;;;;;;-0.25;100.00;100975.94;4984909;28;20037;-78
2023/12/19 03:24:22;;;;;;;48.25;27.98;;;;;;;-0.13;100.00;100975.63;4987377;28;20042;-77
2023/12/19 03:26:47;;;;;;;43.08;27.85;;;;;;;-0.16;100.00;100960.97;4984939;28;20092;-77
2023/12/19 03:29:13;;;;;;;43.47;26.95;;;;;;;-0.16;100.00;100960.13;4988133;28;20034;-78
2023/12/19 03:31:38;;;;;;;44.80;29.17;;;;;;;-0.16;100.00;100962.72;5009959;28;20081;-77
2023/12/19 03:34:03;;;;;;;47.10;28.85;;;;;;;-0.14;100.00;100968.72;4986434;28;20022;-78
2023/12/19 03:36:29;;;;;;;36.92;26.33;;;;;;;-0.27;100.00;100970.78;4985220;28;20077;-78
2023/12/19 03:38:55;;;;;;;49.25;28.63;;;;;;;-0.34;100.00;100965.78;4986183;28;20030;-77
2023/12/19 03:41:20;;;;;;;43.55;28.50;;;;;;;-0.39;100.00;100973.69;4984457;28;20034;-78
2023/12/19 03:43:46;;;;;;;41.97;28.98;;;;;;;-0.48;100.00;100969.63;4986916;28;20061;-78
2023/12/19 03:46:11;;;;;;;41.50;29.33;;;;;;;-0.53;100.00;100960.25;4983261;28;20145;-77
2023/12/19 03:48:36;;;;;;;44.90;30.52;;;;;;;-0.58;100.00;100962.09;4986572;28;20403;-77
2023/12/19 03:51:03;;;;;;;52.90;32.65;;;;;;;-0.65;100.00;100956.22;4985547;28;20034;-76
2023/12/19 03:53:29;;;;;;;45.63;31.45;;;;;;;-0.68;100.00;100958.88;4985733;28;20555;-77
2023/12/19 03:55:55;;;;;;;47.78;31.83;;;;;;;-0.70;100.00;100947.69;4983972;28;20155;-79
2023/12/19 03:58:20;;;;;;;51.00;31.63;;;;;;;-0.68;100.00;100945.06;4984434;28;20034;-79
2023/12/19 04:00:46;;;;;;;50.40;32.00;;;;;;;-0.62;100.00;100937.97;4978057;28;20480;-78
2023/12/19 04:03:11;;;;;;;47.95;30.83;;;;;;;-0.56;100.00;100945.59;4989616;28;20720;-76
2023/12/19 04:05:37;;;;;;;50.38;31.77;;;;;;;-0.54;100.00;100938.66;4981555;28;20494;-78
2023/12/19 04:08:02;;;;;;;51.15;30.88;;;;;;;-0.52;100.00;100939.44;4986501;28;20022;-77
2023/12/19 04:10:28;;;;;;;47.53;31.05;;;;;;;-0.56;100.00;100945.59;4983169;28;20471;-77
2023/12/19 04:12:53;;;;;;;48.95;30.27;;;;;;;-0.57;100.00;100938.72;5013140;28;20065;-76
2023/12/19 04:15:19;;;;;;;47.80;29.92;;;;;;;-0.59;100.00;100950.84;4982903;28;20106;-77
2023/12/19 04:17:44;;;;;;;46.60;30.73;;;;;;;-0.60;100.00;100944.00;4990020;28;20058;-77
2023/12/19 04:20:11;;;;;;;46.08;31.38;;;;;;;-0.59;100.00;100944.84;4983261;28;20026;-76
2023/12/19 04:22:36;;;;;;;49.92;30.20;;;;;;;-0.57;100.00;100936.13;4984320;28;20038;-79
2023/12/19 04:25:02;;;;;;;43.55;29.70;;;;;;;-0.61;100.00;100929.31;4984589;28;20037;-78
2023/12/19 04:27:27;;;;;;;44.00;27.75;;;;;;;-0.86;100.00;100931.66;4985460;28;20026;-77
2023/12/19 04:29:55;;;;;;;40.92;27.83;;;;;;;-0.88;100.00;100933.44;4983242;28;20383;-77
2023/12/19 04:32:21;;;;;;;39.03;26.52;;;;;;;-0.70;100.00;100934.72;4985561;28;20046;-78
2023/12/19 04:34:47;;;;;;;39.15;26.48;;;;;;;-0.66;100.00;100944.16;4981910;28;20394;-77
2023/12/19 04:37:12;;;;;;;41.88;26.48;;;;;;;-0.79;100.00;100942.75;4984631;28;20053;-78
2023/12/19 04:39:38;;;;;;;41.60;26.25;;;;;;;-0.91;100.00;100938.72;4985227;28;20043;-78
2023/12/19 04:42:07;;;;;;;41.97;27.38;;;;;;;-0.87;100.00;100942.06;4986019;28;20116;-77
2023/12/19 04:44:35;;;;;;;36.10;25.85;;;;;;;-0.87;100.00;100942.06;4981979;28;20067;-78
2023/12/19 04:47:02;;;;;;;41.05;26.98;;;;;;;-0.84;100.00;100939.41;4985886;28;20050;-78
2023/12/19 04:49:28;;;;;;;35.50;24.83;;;;;;;-0.87;100.00;100934.28;4984648;28;20356;-76
2023/12/19 04:51:54;;;;;;;37.30;25.42;;;;;;;-0.91;100.00;100928.34;5013747;28;20030;-77
2023/12/19 04:54:19;;;;;;;36.95;24.85;;;;;;;-0.96;100.00;100934.53;4982795;28;20050;-77
2023/12/19 04:56:45;;;;;;;38.58;25.92;;;;;;;-0.98;100.00;100928.53;4986467;28;20545;-76
2023/12/19 04:59:10;;;;;;;36.95;25.92;;;;;;;-1.04;100.00;100928.66;4984166;28;20030;-77
2023/12/19 05:01:39;;;;;;;38.45;25.83;;;;;;;-1.15;100.00;100934.09;5017287;28;20069;-76
2023/12/19 05:04:05;;;;;;;40.67;26.70;;;;;;;-1.19;100.00;100934.22;4983806;28;20042;-77
2023/12/19 05:06:31;;;;;;;37.70;25.73;;;;;;;-1.26;100.00;100936.09;4985565;28;20505;-77
2023/12/19 05:08:56;;;;;;;41.97;25.42;;;;;;;-1.25;100.00;100925.72;4987759;28;20039;-77
2023/12/19 05:11:22;;;;;;;35.70;24.48;;;;;;;-1.17;100.00;100924.66;4986484;28;20082;-78
2023/12/19 05:13:47;;;;;;;36.05;25.63;;;;;;;-1.31;100.00;100915.50;4979022;28;20039;-77
2023/12/19 05:16:17;;;;;;;38.10;24.17;;;;;;;-1.21;100.00;100913.53;4986038;28;20375;-78
2023/12/19 05:18:43;;;;;;;38.30;24.70;;;;;;;-1.32;100.00;100921.56;4978313;28;20038;-78
2023/12/19 05:21:09;;;;;;;39.17;24.27;;;;;;;-1.40;100.00;100913.09;4984049;28;20034;-77
2023/12/19 05:23:35;;;;;;;38.28;24.92;;;;;;;-1.30;100.00;100906.84;4983289;28;20034;-77
2023/12/19 05:26:05;;;;;;;34.00;24.15;;;;;;;-1.27;100.00;100908.50;4984745;28;20045;-77
2023/12/19 05:28:31;;;;;;;37.83;25.47;;;;;;;-1.16;100.00;100900.47;4982901;28;20038;-77
2023/12/19 05:30:57;;;;;;;39.08;24.52;;;;;;;-1.27;100.00;100909.34;4985084;28;20044;-77
2023/12/19 05:33:27;;;;;;;37.88;25.67;;;;;;;-1.18;100.00;100902.25;4983420;28;20039;-77
2023/12/19 05:35:53;;;;;;;37.00;24.90;;;;;;;-1.05;100.00;100903.66;4985340;28;20145;-77
2023/12/19 05:38:19;;;;;;;36.03;24.92;;;;;;;-0.98;100.00;100900.03;4985770;28;20078;-75
2023/12/19 05:40:45;;;;;;;30.95;23.17;;;;;;;-1.05;100.00;100903.66;4982685;28;20030;-77
2023/12/19 05:43:10;;;;;;;35.10;24.60;;;;;;;-0.96;100.00;100900.84;4986627;28;20050;-76
2023/12/19 05:45:36;;;;;;;35.28;23.80;;;;;;;-0.89;100.00;100905.00;4983798;28;20038;-77
2023/12/19 05:48:02;;;;;;;37.22;24.27;;;;;;;-0.88;100.00;100901.50;4984027;28;20030;-75
2023/12/19 05:50:27;;;;;;;35.70;25.42;;;;;;;-0.87;100.00;100905.78;4985389;28;20089;-76
2023/12/19 05:52:52;;;;;;;35.40;23.90;;;;;;;-0.87;100.00;100900.59;4982938;28;20045;-76
2023/12/19 05:55:21;;;;;;;38.63;25.38;;;;;;;-0.83;100.00;100904.84;4988455;28;20096;-74
2023/12/19 05:57:47;;;;;;;35.90;25.63;;;;;;;-0.83;100.00;100899.66;4985441;28;20023;-76
2023/12/19 06:00:13;;;;;;;37.47;24.90;;;;;;;-0.80;100.00;100903.91;4986931;28;20041;-74
2023/12/19 06:02:39;;;;;;;35.40;24.30;;;;;;;-0.78;100.00;100902.97;4987706;28;20058;-78
2023/12/19 06:05:08;;;;;;;37.17;24.20;;;;;;;-0.78;100.00;100905.56;4988612;28;20490;-77
2023/12/19 06:07:37;;;;;;;39.05;25.40;;;;;;;-0.81;100.00;100903.03;4988117;28;20045;-75
2023/12/19 06:10:08;;;;;;;33.70;24.90;;;;;;;-0.89;100.00;100905.84;4982629;28;20034;-75
2023/12/19 06:12:35;;;;;;;38.97;26.83;;;;;;;-1.01;100.00;100907.88;4978175;28;20037;-76
2023/12/19 06:15:00;;;;;;;37.00;26.40;;;;;;;-1.09;100.00;100908.06;4978876;28;20026;-75
2023/12/19 06:17:29;;;;;;;37.00;26.45;;;;;;;-1.15;100.00;100902.16;4981845;28;20031;-74
2023/12/19 06:19:55;;;;;;;38.80;27.27;;;;;;;-1.10;100.00;100901.16;4986016;28;20039;-74
2023/12/19 06:22:21;;;;;;;40.15;27.55;;;;;;;-1.07;100.00;100913.22;5010131;28;20035;-75
2023/12/19 06:24:46;;;;;;;40.85;27.80;;;;;;;-1.04;100.00;100907.94;4983723;28;20088;-78
2023/12/19 06:27:15;;;;;;;44.05;27.92;;;;;;;-1.04;100.00;100910.53;4989896;28;20076;-77
2023/12/19 06:29:42;;;;;;;39.38;27.02;;;;;;;-1.00;100.00;100909.59;5011886;28;20031;-74
2023/12/19 06:32:10;;;;;;;38.33;26.27;;;;;;;-1.01;100.00;100903.56;4986049;28;20038;-76
2023/12/19 06:34:36;;;;;;;44.88;27.08;;;;;;;-0.99;100.00;100908.69;4980862;28;20065;-78
2023/12/19 06:37:02;;;;;;;42.67;27.15;;;;;;;-1.01;100.00;100906.16;4980367;28;20031;-77
2023/12/19 06:39:28;;;;;;;42.05;27.85;;;;;;;-1.03;100.00;100907.91;4983194;28;20042;-78
2023/12/19 06:41:53;;;;;;;39.63;26.17;;;;;;;-1.00;100.00;100899.22;4985741;28;20073;-77
2023/12/19 06:44:19;;;;;;;40.58;27.30;;;;;;;-0.98;100.00;100889.66;4985658;28;20398;-78
2023/12/19 06:46:49;;;;;;;42.05;27.25;;;;;;;-1.06;100.00;100891.59;4979195;28;20547;-78
2023/12/19 06:49:22;;;;;;;39.03;26.52;;;;;;;-1.02;100.00;100890.63;5009789;28;20085;-79
2023/12/19 06:51:48;;;;;;;38.13;25.70;;;;;;;-0.98;100.00;100884.47;4984064;28;20084;-79
2023/12/19 06:54:13;;;;;;;36.30;26.35;;;;;;;-1.24;100.00;100892.91;4978407;28;20464;-79
2023/12/19 06:56:40;;;;;;;35.38;26.10;;;;;;;-1.11;100.00;100883.06;4980425;28;20121;-78
2023/12/19 06:59:06;;;;;;;42.38;27.77;;;;;;;-1.02;100.00;100883.72;4980616;28;20745;-78
2023/12/19 07:01:31;;;;;;;39.22;26.17;;;;;;;-1.17;100.00;100883.22;4992290;28;20371;-76
2023/12/19 07:03:57;;;;;;;37.90;25.75;;;;;;;-1.04;100.00;100882.03;5011955;28;20054;-76
2023/12/19 07:06:22;;;;;;;36.85;25.80;;;;;;;-1.18;100.00;100876.34;4983402;28;20035;-74
2023/12/19 07:08:48;;;;;;;37.22;24.92;;;;;;;-1.16;100.00;100872.81;4985310;28;20081;-75
2023/12/19 07:11:14;;;;;;;35.80;25.73;;;;;;;-1.06;100.00;100871.69;4986168;28;20101;-75
2023/12/19 07:13:40;;;;;;;35.60;24.85;;;;;;;-1.09;100.00;100873.53;4984135;28;20035;-75
2023/12/19 07:16:06;;;;;;;42.25;25.10;;;;;;;-1.11;100.00;100878.75;4985980;28;20469;-77
2023/12/19 07:18:33;;;;;;;39.70;24.83;;;;;;;-1.30;100.00;100864.56;4986414;28;20034;-75
2023/12/19 07:20:58;;;;;;;36.33;24.95;;;;;;;-1.41;100.00;100862.19;4986198;28;20034;-75
2023/12/19 07:23:25;;;;;;;38.00;24.08;;;;;;;-1.25;100.00;100860.97;4986504;28;20060;-75
2023/12/19 07:25:50;;;;;;;33.28;23.77;;;;;;;-1.06;100.00;100863.13;4984326;28;20117;-75
2023/12/19 07:28:16;;;;;;;36.97;25.20;;;;;;;-0.98;100.00;100863.75;4990303;28;20538;-75
2023/12/19 07:30:42;;;;;;;35.00;23.55;;;;;;;-0.92;100.00;100863.59;4994567;28;20045;-75
2023/12/19 07:33:09;;;;;;;36.25;24.77;;;;;;;-0.86;100.00;100853.06;4986256;28;20562;-76
2023/12/19 07:35:34;;;;;;;36.42;23.85;;;;;;;-0.81;100.00;100853.81;5013991;28;20034;-75
2023/12/19 07:37:59;;;;;;;32.08;23.13;;;;;;;-0.80;100.00;100847.72;4989163;28;20101;-75
2023/12/19 07:40:25;;;;;;;33.90;23.10;;;;;;;-0.71;100.00;100851.84;4985874;28;20046;-76
2023/12/19 07:42:50;;;;;;;34.35;22.55;;;;;;;-0.65;100.00;100852.53;4983991;28;20168;-76
2023/12/19 07:45:17;;;;;;;33.97;24.27;;;;;;;-0.66;100.00;100850.81;4987053;28;20045;-76
2023/12/19 07:47:43;;;;;;;29.55;22.83;;;;;;;-0.63;100.00;100850.72;4983537;28;20418;-76
2023/12/19 07:50:10;;;;;;;32.05;23.27;;;;;;;-0.64;100.00;100854.22;5009694;28;20165;-75
2023/12/19 07:52:36;;;;;;;30.85;22.38;;;;;;;-0.52;100.00;100861.66;4983696;28;20089;-75
2023/12/19 07:55:04;;;;;;;34.20;22.30;;;;;;;-0.43;100.00;100857.97;4987733;28;20038;-74
2023/12/19 07:57:30;;;;;;;33.42;22.67;;;;;;;-0.56;100.00;100847.09;4982411;28;20034;-76
2023/12/19 07:59:55;;;;;;;32.83;22.92;;;;;;;-0.39;100.00;100850.94;4986597;28;20038;-76
2023/12/19 08:02:21;;;;;;;30.65;22.00;;;;;;;-0.28;100.00;100846.31;4983278;28;20035;-76
2023/12/19 08:04:47;;;;;;;34.72;23.08;;;;;;;-0.16;100.00;100845.97;4987185;28;20038;-74
2023/12/19 08:07:12;;;;;;;31.58;22.33;;;;;;;-0.26;100.00;100855.75;4983345;28;20028;-74
2023/12/19 08:09:38;;;;;;;33.30;22.30;;;;;;;-0.04;100.00;100858.59;5434822;23;20050;-76
2023/12/19 08:12:05;;;;;;;32.42;23.02;;;;;;;0.00;100.00;100863.63;4984475;28;20046;-75
2023/12/19 08:14:30;;;;;;;35.78;24.17;;;;;;;-0.10;100.00;100874.34;4986372;28;20034;-75
2023/12/19 08:16:55;;;;;;;37.17;23.77;;;;;;;-0.08;100.00;100880.34;4981854;28;20043;-75
2023/12/19 08:19:21;;;;;;;36.88;23.98;;;;;;;-0.04;100.00;100868.97;4986115;28;20034;-76
2023/12/19 08:21:51;;;;;;;37.33;24.98;;;;;;;0.00;100.00;100857.63;4983103;28;20026;-75
2023/12/19 08:24:16;;;;;;;38.17;25.13;;;;;;;0.08;100.00;100845.25;4987567;28;20038;-74
2023/12/19 08:26:49;;;;;;;37.60;23.55;;;;;;;0.10;100.00;100853.00;4983920;28;20088;-76
2023/12/19 08:29:15;;;;;;;34.13;23.55;;;;;;;0.18;100.00;100857.06;4988073;28;20137;-76
2023/12/19 08:31:41;;;;;;;36.95;26.00;;;;;;;0.21;100.00;100862.16;4984745;28;20038;-76
2023/12/19 08:34:06;;;;;;;35.22;25.55;;;;;;;0.23;100.00;100849.16;4982199;28;20044;-75
2023/12/19 08:36:32;;;;;;;36.25;25.20;;;;;;;0.33;100.00;100856.59;4980570;28;20034;-76
2023/12/19 08:38:59;;;;;;;39.40;25.98;;;;;;;0.44;100.00;100853.69;4986262;28;20058;-77
2023/12/19 08:41:24;;;;;;;39.67;25.63;;;;;;;0.56;100.00;100852.44;4984967;28;20094;-76
2023/12/19 08:43:50;;;;;;;37.70;24.80;;;;;;;0.58;100.00;100856.72;4987023;28;20104;-76
2023/12/19 08:46:19;;;;;;;37.10;25.92;;;;;;;0.56;100.00;100836.84;4984101;28;20046;-75
2023/12/19 08:48:48;;;;;;;37.38;24.73;;;;;;;0.49;100.00;100837.94;4986955;28;20062;-75
2023/12/19 08:51:13;;;;;;;37.42;25.02;;;;;;;0.68;100.00;100831.28;4984498;28;20471;-76
2023/12/19 08:53:38;;;;;;;39.05;27.23;;;;;;;0.80;100.00;100825.69;4986479;28;20100;-76
2023/12/19 08:56:04;;;;;;;39.50;25.80;;;;;;;0.85;100.00;100828.13;4982897;28;20030;-77
2023/12/19 08:58:30;;;;;;;36.33;25.40;;;;;;;0.84;100.00;100816.88;4983920;28;20073;-77
2023/12/19 09:00:56;;;;;;;41.50;25.00;;;;;;;1.00;100.00;100818.06;4984434;28;20101;-76
2023/12/19 09:03:23;;;;;;;39.42;25.33;;;;;;;1.07;100.00;100814.34;4985993;28;20125;-75
2023/12/19 09:05:49;;;;;;;34.22;24.65;;;;;;;1.05;100.00;100810.97;4983248;28;20039;-76
2023/12/19 09:08:15;;;;;;;36.83;23.45;;;;;;;1.06;100.00;100812.66;4986773;28;20030;-76
2023/12/19 09:10:41;;;;;;;36.35;23.45;;;;;;;1.27;100.00;100821.47;4982433;28;20077;-76
2023/12/19 09:13:06;;;;;;;34.50;24.38;;;;;;;1.44;100.00;100820.88;4982181;28;20553;-75
2023/12/19 09:15:35;;;;;;;37.03;24.70;;;;;;;1.52;100.00;100821.47;4983046;28;20386;-76
2023/12/19 09:18:03;;;;;;;34.53;23.13;;;;;;;1.59;100.00;100812.53;4986428;28;20034;-77
2023/12/19 09:20:29;;;;;;;38.25;24.73;;;;;;;1.68;100.00;100806.97;4984918;28;20082;-77
2023/12/19 09:22:55;;;;;;;38.75;24.52;;;;;;;1.77;100.00;100801.41;4985102;28;20134;-77
2023/12/19 09:25:20;;;;;;;32.50;23.27;;;;;;;1.77;100.00;100806.63;4982825;28;20101;-76
2023/12/19 09:27:46;;;;;;;32.47;22.50;;;;;;;1.81;100.00;100803.03;4986101;28;20515;-76
2023/12/19 09:30:14;;;;;;;31.30;22.85;;;;;;;1.92;100.00;100803.47;4983381;28;20038;-76
2023/12/19 09:32:41;;;;;;;30.83;21.90;;;;;;;1.96;100.00;100802.44;4990370;28;20391;-77
2023/12/19 09:35:07;;;;;;;31.77;22.20;;;;;;;2.08;100.00;100800.28;4987621;28;20084;-77
2023/12/19 09:37:34;;;;;;;28.45;21.00;;;;;;;2.15;100.00;100801.72;4987678;28;20042;-76
2023/12/19 09:39:59;;;;;;;30.00;21.85;;;;;;;2.11;100.00;100797.56;4988254;28;20026;-77
2023/12/19 09:42:25;;;;;;;29.10;19.85;;;;;;;2.04;100.00;100795.19;4990281;28;20036;-78
2023/12/19 09:44:51;;;;;;;30.95;21.10;;;;;;;2.09;100.00;100791.56;4986979;28;20061;-78
2023/12/19 09:47:23;;;;;;;31.52;21.75;;;;;;;2.30;100.00;100795.91;4987393;28;20039;-76
2023/12/19 09:49:52;;;;;;;30.45;21.05;;;;;;;2.47;100.00;100793.50;4982932;28;20038;-77
2023/12/19 09:52:21;;;;;;;28.95;20.70;;;;;;;2.57;100.00;100789.63;4984895;28;20035;-76
2023/12/19 09:54:49;;;;;;;32.17;22.15;;;;;;;2.65;100.00;100781.50;4985341;28;20090;-75
2023/12/19 09:57:15;;;;;;;32.33;22.50;;;;;;;2.74;100.00;100778.50;4986298;28;20090;-76
2023/12/19 09:59:43;;;;;;;33.90;22.92;;;;;;;2.77;100.00;100765.31;4988698;28;20049;-76
2023/12/19 10:02:09;;;;;;;35.17;22.88;;;;;;;2.79;100.00;100764.34;4986492;28;20034;-76
2023/12/19 10:04:34;;;;;;;31.20;22.17;;;;;;;2.96;100.00;100765.41;4987600;28;20034;-77
2023/12/19 10:07:00;;;;;;;30.27;21.02;;;;;;;3.08;100.00;100759.66;4985417;28;20027;-76
2023/12/19 10:09:26;;;;;;;28.88;21.80;;;;;;;3.17;100.00;100759.28;4987204;28;20046;-75
2023/12/19 10:12:04;;;;;;;32.67;21.73;;;;;;;3.26;100.00;100748.44;4982840;28;20064;-77
2023/12/19 10:14:29;;;;;;;29.08;21.23;;;;;;;3.35;100.00;100741.97;4988414;28;20096;-77
2023/12/19 10:16:55;;;;;;;31.17;21.15;;;;;;;3.43;100.00;100735.47;4985176;28;20027;-77
2023/12/19 10:19:28;;;;;;;35.22;22.73;;;;;;;3.50;100.00;100730.84;4989390;28;20046;-76
2023/12/19 10:22:07;;;;;;;33.55;22.65;;;;;;;3.54;100.00;100721.94;4988892;28;20059;-76
2023/12/19 10:24:33;;;;;;;33.70;23.25;;;;;;;3.65;100.00;100714.50;4987477;28;20390;-76
2023/12/19 10:27:05;;;;;;;35.72;22.15;;;;;;;3.74;100.00;100707.97;4984549;28;20134;-76
2023/12/19 10:29:36;;;;;;;30.52;21.08;;;;;;;3.84;100.00;100704.84;4987746;28;20478;-76
2023/12/19 10:32:12;;;;;;;25.75;19.58;;;;;;;3.97;100.00;100699.91;4987062;28;20043;-77
2023/12/19 10:34:38;;;;;;;26.90;19.58;;;;;;;4.02;100.00;100693.53;4984584;28;20039;-75
2023/12/19 10:37:15;;;;;;;26.88;17.98;;;;;;;4.10;100.00;100687.94;4988389;28;20154;-76
2023/12/19 10:39:44;;;;;;;23.08;17.85;;;;;;;4.17;100.00;100691.97;4984198;28;20046;-76
2023/12/19 10:42:10;;;;;;;23.10;16.58;;;;;;;4.20;100.00;100691.81;4987775;28;20026;-77
2023/12/19 10:44:40;;;;;;;23.17;16.35;;;;;;;4.27;100.00;100682.75;4982556;28;20246;-76
2023/12/19 10:47:10;;;;;;;26.00;17.63;;;;;;;4.34;100.00;100678.91;4985564;28;20031;-76
2023/12/19 10:49:36;;;;;;;18.00;15.13;;;;;;;4.43;100.00;100673.22;4986817;28;20031;-77
2023/12/19 10:52:09;;;;;;;25.02;16.00;;;;;;;4.46;100.00;100662.63;4989300;28;20097;-77
2023/12/19 10:54:36;;;;;;;22.63;15.50;;;;;;;4.50;100.00;100663.31;4986778;28;20042;-77
2023/12/19 10:57:14;;;;;;;20.98;15.48;;;;;;;4.54;100.00;100660.44;4986425;28;20526;-77
2023/12/19 10:59:43;;;;;;;21.58;14.82;;;;;;;4.63;100.00;100648.69;4987364;28;20148;-77
2023/12/19 11:02:46;;;;;;;19.35;15.43;;;;;;;4.72;100.00;100644.75;4984702;28;20517;-77